Time;durP1;ratioP1;P1;durP2;ratioP2;P2;SDS_P1;SDS_P2;PMS_P1;PMS_P2;Temp;Humidity;BMP_temperature;BMP_pressure;BME280_temperature;BME280_humidity;BME280_pressure;Samples;Min_cycle;Max_cycle;Signal;HPM_P1;HPM_P2
2021/10/01 00:02:15;;;;;;;0.10;0.10;;;;;;;;;;5000903;28;20045;-84
2021/10/01 00:04:41;;;;;;;0.20;0.20;;;;;;;;;;4998948;28;20026;-85
2021/10/01 00:07:09;;;;;;;0.10;0.10;;;;;;;;;;5000141;28;20045;-85
2021/10/01 00:09:35;;;;;;;0.10;0.10;;;;;;;;;;4994439;28;20888;-85
2021/10/01 00:12:02;;;;;;;0.05;0.05;;;;;;;;;;4999419;28;20591;-85
2021/10/01 00:14:28;;;;;;;0.10;0.10;;;;;;;;;;5001679;28;20497;-85
2021/10/01 00:16:55;;;;;;;0.10;0.10;;;;;;;;;;4999247;28;20113;-85
2021/10/01 00:19:22;;;;;;;0.10;0.10;;;;;;;;;;5000619;28;20128;-85
2021/10/01 00:21:48;;;;;;;0.10;0.10;;;;;;;;;;4996237;28;20120;-85
2021/10/01 00:24:14;;;;;;;0.10;0.10;;;;;;;;;;4998530;28;20161;-84
2021/10/01 00:26:41;;;;;;;0.10;0.10;;;;;;;;;;5000706;28;20049;-84
2021/10/01 00:29:08;;;;;;;0.00;0.00;;;;;;;;;;5001139;28;20033;-84
2021/10/01 00:31:34;;;;;;;0.05;0.05;;;;;;;;;;4993228;28;20041;-84
2021/10/01 00:34:01;;;;;;;0.10;0.10;;;;;;;;;;4990972;28;20609;-85
2021/10/01 00:36:27;;;;;;;;;;;;;;;;;;5016478;28;20034;-84
2021/10/01 00:38:53;;;;;;;0.10;0.10;;;;;;;;;;4999884;28;20024;-88
2021/10/01 00:41:19;;;;;;;0.10;0.10;;;;;;;;;;4999900;28;20113;-86
2021/10/01 00:43:45;;;;;;;0.03;0.03;;;;;;;;;;5002420;28;20036;-85
2021/10/01 00:46:11;;;;;;;0.63;0.30;;;;;;;;;;5001505;28;20643;-85
2021/10/01 00:48:38;;;;;;;0.10;0.10;;;;;;;;;;5002447;28;20413;-86
2021/10/01 00:51:05;;;;;;;0.20;0.20;;;;;;;;;;5000731;28;20336;-86
2021/10/01 00:53:31;;;;;;;0.10;0.10;;;;;;;;;;5000490;28;20112;-85
2021/10/01 00:55:58;;;;;;;0.10;0.10;;;;;;;;;;5000866;28;20037;-85
2021/10/01 00:58:24;;;;;;;0.10;0.10;;;;;;;;;;5001120;28;20106;-85
2021/10/01 01:03:25;;;;;;;0.10;0.10;;;;;;;;;;5004412;28;20052;-85
2021/10/01 01:05:58;;;;;;;0.20;0.20;;;;;;;;;;5005090;28;20413;-86
2021/10/01 01:08:27;;;;;;;0.57;0.57;;;;;;;;;;5003723;28;20042;-85
2021/10/01 01:10:55;;;;;;;0.52;0.52;;;;;;;;;;4997515;28;20022;-86
2021/10/01 01:13:25;;;;;;;0.10;0.10;;;;;;;;;;4999537;28;20080;-84
2021/10/01 01:16:01;;;;;;;0.10;0.10;;;;;;;;;;5002706;28;20033;-85
2021/10/01 01:18:37;;;;;;;0.10;0.10;;;;;;;;;;5006240;28;20029;-85
2021/10/01 01:21:04;;;;;;;0.10;0.10;;;;;;;;;;5003526;28;20064;-83
2021/10/01 01:23:33;;;;;;;0.10;0.10;;;;;;;;;;5005486;28;20672;-87
2021/10/01 01:26:08;;;;;;;0.10;0.10;;;;;;;;;;5003779;28;20362;-86
2021/10/01 01:28:37;;;;;;;0.10;0.10;;;;;;;;;;5004211;28;20049;-85
2021/10/01 01:31:22;;;;;;;0.10;0.10;;;;;;;;;;5007050;28;20033;-86
2021/10/01 01:33:49;;;;;;;0.20;0.20;;;;;;;;;;4996548;28;20034;-86
2021/10/01 01:36:15;;;;;;;0.10;0.10;;;;;;;;;;5005755;28;20477;-85
2021/10/01 01:38:43;;;;;;;0.10;0.10;;;;;;;;;;5004452;28;20049;-86
2021/10/01 01:41:10;;;;;;;0.10;0.10;;;;;;;;;;5004190;28;20030;-86
2021/10/01 01:43:37;;;;;;;0.03;0.03;;;;;;;;;;5002712;28;20037;-87
2021/10/01 01:46:03;;;;;;;0.00;0.00;;;;;;;;;;5005907;28;20049;-91
2021/10/01 01:48:30;;;;;;;0.70;0.30;;;;;;;;;;5000234;28;20041;-86
2021/10/01 01:50:57;;;;;;;0.30;0.30;;;;;;;;;;5004489;28;20133;-87
2021/10/01 01:53:24;;;;;;;0.00;0.00;;;;;;;;;;5004869;28;20042;-88
2021/10/01 01:55:50;;;;;;;;;;;;;;;;;;5003032;28;20030;-87
2021/10/01 01:58:16;;;;;;;0.10;0.10;;;;;;;;;;5005367;28;19987;-87
2021/10/01 02:00:43;;;;;;;0.10;0.10;;;;;;;;;;5001543;28;20133;-84
2021/10/01 02:03:09;;;;;;;;;;;;;;;;;;5005795;28;20552;-84
2021/10/01 02:05:35;;;;;;;0.10;0.10;;;;;;;;;;5003638;28;19929;-84
2021/10/01 02:08:03;;;;;;;0.17;0.17;;;;;;;;;;5001970;28;20044;-85
2021/10/01 02:10:28;;;;;;;;;;;;;;;;;;5001728;28;20026;-84
2021/10/01 02:12:56;;;;;;;0.10;0.10;;;;;;;;;;4999439;28;20317;-84
2021/10/01 02:15:23;;;;;;;4.47;0.47;;;;;;;;;;5003687;28;20034;-83
2021/10/01 02:17:49;;;;;;;;;;;;;;;;;;5000903;28;20058;-84
2021/10/01 02:20:16;;;;;;;0.20;0.20;;;;;;;;;;5001592;28;19913;-84
2021/10/01 02:22:43;;;;;;;0.10;0.10;;;;;;;;;;5003355;28;20103;-84
2021/10/01 02:27:55;;;;;;;0.10;0.10;;;;;;;;;;4995270;28;19968;-85
2021/10/01 02:30:22;;;;;;;0.20;0.20;;;;;;;;;;5004417;28;20091;-85
2021/10/01 02:32:54;;;;;;;0.10;0.10;;;;;;;;;;5003039;28;20488;-87
2021/10/01 02:35:20;;;;;;;0.10;0.10;;;;;;;;;;5004080;28;20766;-87
2021/10/01 02:37:46;;;;;;;0.10;0.10;;;;;;;;;;5003992;28;20030;-86
2021/10/01 02:40:13;;;;;;;0.10;0.10;;;;;;;;;;5003998;28;20034;-86
2021/10/01 02:42:40;;;;;;;0.20;0.20;;;;;;;;;;4999794;28;20768;-86
2021/10/01 02:45:07;;;;;;;0.10;0.10;;;;;;;;;;4995475;28;20112;-86
2021/10/01 02:47:34;;;;;;;0.20;0.20;;;;;;;;;;5002888;28;20140;-86
2021/10/01 02:50:01;;;;;;;0.10;0.10;;;;;;;;;;5003296;28;20120;-85
2021/10/01 02:52:27;;;;;;;0.20;0.20;;;;;;;;;;5003291;28;20037;-86
2021/10/01 02:54:59;;;;;;;0.80;0.80;;;;;;;;;;4994621;28;20553;-86
2021/10/01 02:57:28;;;;;;;0.03;0.03;;;;;;;;;;4999174;28;20026;-85
2021/10/01 02:59:56;;;;;;;0.10;0.10;;;;;;;;;;5018844;28;20057;-86
2021/10/01 03:02:23;;;;;;;0.10;0.10;;;;;;;;;;5002101;28;20327;-89
2021/10/01 03:04:51;;;;;;;0.10;0.10;;;;;;;;;;5004926;28;20125;-89
2021/10/01 03:07:17;;;;;;;0.15;0.15;;;;;;;;;;5001442;28;20041;-87
2021/10/01 03:09:47;;;;;;;0.10;0.10;;;;;;;;;;4999581;28;20037;-88
2021/10/01 03:12:13;;;;;;;0.08;0.08;;;;;;;;;;5013860;28;20483;-87
2021/10/01 03:14:40;;;;;;;0.10;0.10;;;;;;;;;;4999437;28;20033;-85
2021/10/01 03:17:06;;;;;;;0.10;0.10;;;;;;;;;;4993951;28;20130;-86
2021/10/01 03:19:34;;;;;;;0.10;0.10;;;;;;;;;;4993761;28;20598;-85
2021/10/01 03:22:00;;;;;;;0.10;0.10;;;;;;;;;;4997126;28;20038;-85
2021/10/01 03:24:26;;;;;;;0.07;0.07;;;;;;;;;;5001158;28;20043;-87
2021/10/01 03:26:53;;;;;;;0.10;0.10;;;;;;;;;;4994036;28;20293;-88
2021/10/01 03:29:19;;;;;;;0.10;0.10;;;;;;;;;;4998114;28;20042;-86
2021/10/01 03:31:49;;;;;;;0.20;0.20;;;;;;;;;;5001154;28;20041;-86
2021/10/01 03:34:15;;;;;;;0.10;0.10;;;;;;;;;;4992733;28;20030;-86
2021/10/01 03:36:43;;;;;;;0.10;0.10;;;;;;;;;;4991501;28;20041;-87
2021/10/01 03:39:09;;;;;;;0.10;0.10;;;;;;;;;;5005890;28;20037;-86
2021/10/01 03:41:35;;;;;;;0.00;0.00;;;;;;;;;;5002048;28;20038;-86
2021/10/01 03:44:01;;;;;;;0.20;0.20;;;;;;;;;;5000610;28;20069;-87
2021/10/01 03:46:27;;;;;;;0.17;0.17;;;;;;;;;;5001035;28;20049;-85
2021/10/01 03:48:54;;;;;;;0.13;0.13;;;;;;;;;;5001360;28;20029;-85
2021/10/01 03:51:23;;;;;;;0.37;0.37;;;;;;;;;;4979955;28;20044;-87
2021/10/01 03:53:49;;;;;;;0.35;0.25;;;;;;;;;;4999447;28;20081;-87
2021/10/01 03:56:17;;;;;;;0.10;0.10;;;;;;;;;;5001380;28;20042;-87
2021/10/01 03:58:44;;;;;;;0.10;0.10;;;;;;;;;;5001365;28;20076;-88
2021/10/01 04:01:10;;;;;;;0.30;0.30;;;;;;;;;;5001828;28;20034;-89
2021/10/01 04:03:36;;;;;;;0.20;0.20;;;;;;;;;;4997988;28;20025;-88
2021/10/01 04:06:04;;;;;;;0.10;0.10;;;;;;;;;;5002341;28;20127;-86
2021/10/01 04:08:30;;;;;;;0.10;0.10;;;;;;;;;;5003543;28;20345;-92
2021/10/01 04:10:56;;;;;;;0.10;0.10;;;;;;;;;;5004007;28;20049;-89
2021/10/01 04:13:22;;;;;;;0.20;0.20;;;;;;;;;;5003036;28;20747;-90
2021/10/01 04:15:48;;;;;;;0.10;0.10;;;;;;;;;;5002725;28;20404;-86
2021/10/01 04:18:14;;;;;;;0.10;0.10;;;;;;;;;;5001141;28;20084;-85
2021/10/01 04:20:43;;;;;;;0.10;0.10;;;;;;;;;;4999254;28;20048;-86
2021/10/01 04:23:09;;;;;;;0.10;0.10;;;;;;;;;;4998297;28;20037;-84
2021/10/01 04:25:35;;;;;;;0.17;0.17;;;;;;;;;;4994786;28;20040;-85
2021/10/01 04:28:01;;;;;;;0.10;0.10;;;;;;;;;;5001403;28;20065;-85
2021/10/01 04:30:27;;;;;;;0.65;0.28;;;;;;;;;;4998577;28;20746;-84
2021/10/01 04:33:12;;;;;;;1.63;0.83;;;;;;;;;;4992301;28;20037;-85
2021/10/01 04:35:39;;;;;;;0.10;0.10;;;;;;;;;;4993677;28;20047;-82
2021/10/01 04:38:05;;;;;;;0.10;0.10;;;;;;;;;;4990962;28;20082;-82
2021/10/01 04:40:31;;;;;;;0.15;0.15;;;;;;;;;;4997051;28;20092;-87
2021/10/01 04:42:57;;;;;;;0.10;0.10;;;;;;;;;;4996098;28;20105;-86
2021/10/01 04:45:23;;;;;;;0.10;0.10;;;;;;;;;;4998595;28;20030;-86
2021/10/01 04:47:49;;;;;;;0.13;0.13;;;;;;;;;;4997668;28;20120;-87
2021/10/01 04:50:15;;;;;;;0.10;0.10;;;;;;;;;;4996777;28;20053;-86
2021/10/01 04:52:41;;;;;;;0.13;0.13;;;;;;;;;;4988892;28;20042;-86
2021/10/01 04:55:07;;;;;;;0.15;0.15;;;;;;;;;;4992707;28;20026;-87
2021/10/01 04:57:34;;;;;;;0.10;0.10;;;;;;;;;;4988812;28;20036;-87
2021/10/01 05:00:00;;;;;;;0.03;0.03;;;;;;;;;;4991352;28;20120;-86
2021/10/01 05:02:26;;;;;;;0.10;0.10;;;;;;;;;;4991076;28;20093;-85
2021/10/01 05:04:55;;;;;;;0.10;0.10;;;;;;;;;;4996531;28;20029;-86
2021/10/01 05:07:21;;;;;;;0.28;0.17;;;;;;;;;;5002864;28;20116;-85
2021/10/01 05:09:48;;;;;;;0.30;0.30;;;;;;;;;;5001240;28;20513;-85
2021/10/01 05:12:14;;;;;;;0.10;0.10;;;;;;;;;;5005189;28;20807;-87
2021/10/01 05:14:40;;;;;;;0.10;0.10;;;;;;;;;;5002885;28;20030;-84
2021/10/01 05:17:06;;;;;;;0.10;0.10;;;;;;;;;;5000426;28;20042;-84
2021/10/01 05:19:32;;;;;;;0.10;0.10;;;;;;;;;;5002439;28;20061;-86
2021/10/01 05:21:58;;;;;;;0.10;0.10;;;;;;;;;;5001253;28;20571;-84
2021/10/01 05:24:24;;;;;;;0.25;0.25;;;;;;;;;;5003135;28;20650;-84
2021/10/01 05:26:50;;;;;;;0.10;0.10;;;;;;;;;;5000516;28;20563;-84
2021/10/01 05:29:16;;;;;;;0.10;0.10;;;;;;;;;;5002478;28;20708;-84
2021/10/01 05:31:42;;;;;;;0.30;0.30;;;;;;;;;;5001837;28;20128;-83
2021/10/01 05:34:09;;;;;;;0.10;0.10;;;;;;;;;;5003056;28;20508;-84
2021/10/01 05:36:35;;;;;;;0.37;0.37;;;;;;;;;;5002077;28;20061;-84
2021/10/01 05:39:01;;;;;;;0.13;0.13;;;;;;;;;;5004608;28;20772;-84
2021/10/01 05:41:30;;;;;;;0.10;0.10;;;;;;;;;;5001791;28;20134;-84
2021/10/01 05:43:56;;;;;;;0.10;0.10;;;;;;;;;;5002793;28;20038;-83
2021/10/01 05:46:22;;;;;;;0.10;0.10;;;;;;;;;;5002842;28;20030;-82
2021/10/01 05:48:55;;;;;;;0.10;0.10;;;;;;;;;;5002149;28;20069;-82
2021/10/01 05:51:21;;;;;;;0.22;0.22;;;;;;;;;;5006153;28;20640;-82
2021/10/01 05:53:59;;;;;;;0.10;0.10;;;;;;;;;;5006557;28;20033;-82
2021/10/01 05:56:25;;;;;;;0.10;0.10;;;;;;;;;;5006596;28;20338;-84
2021/10/01 05:58:52;;;;;;;0.10;0.10;;;;;;;;;;5005510;28;20045;-84
2021/10/01 06:01:18;;;;;;;0.10;0.10;;;;;;;;;;5005485;28;20041;-83
2021/10/01 06:03:44;;;;;;;0.10;0.10;;;;;;;;;;4988172;28;20037;-82
2021/10/01 06:06:10;;;;;;;0.03;0.03;;;;;;;;;;5006880;28;20141;-83
2021/10/01 06:08:37;;;;;;;0.10;0.10;;;;;;;;;;5004661;28;20053;-84
2021/10/01 06:11:03;;;;;;;0.10;0.10;;;;;;;;;;5003050;28;20534;-84
2021/10/01 06:13:29;;;;;;;0.10;0.10;;;;;;;;;;5005369;28;20065;-84
2021/10/01 06:15:55;;;;;;;0.10;0.10;;;;;;;;;;5005346;28;20041;-86
2021/10/01 06:18:22;;;;;;;0.10;0.10;;;;;;;;;;5003795;28;20076;-87
2021/10/01 06:20:48;;;;;;;0.20;0.20;;;;;;;;;;5021336;28;20712;-87
2021/10/01 06:23:16;;;;;;;0.10;0.10;;;;;;;;;;5002436;28;20905;-85
2021/10/01 06:25:45;;;;;;;1.33;0.80;;;;;;;;;;5002173;28;20103;-85
2021/10/01 06:28:11;;;;;;;0.13;0.13;;;;;;;;;;5004882;28;20541;-85
2021/10/01 06:30:37;;;;;;;0.10;0.10;;;;;;;;;;5001390;28;20113;-84
2021/10/01 06:33:03;;;;;;;0.10;0.10;;;;;;;;;;5006878;28;20030;-84
2021/10/01 06:35:29;;;;;;;0.13;0.13;;;;;;;;;;5000136;28;20062;-84
2021/10/01 06:37:55;;;;;;;0.10;0.10;;;;;;;;;;5001670;28;20033;-84
2021/10/01 06:40:21;;;;;;;0.10;0.10;;;;;;;;;;5004313;28;20029;-84
2021/10/01 06:42:49;;;;;;;0.10;0.10;;;;;;;;;;5003028;28;20030;-84
2021/10/01 06:45:24;;;;;;;0.10;0.10;;;;;;;;;;5006105;28;20099;-84
2021/10/01 06:47:55;;;;;;;0.20;0.20;;;;;;;;;;5005698;28;20081;-84
2021/10/01 08:19:53;;;;;;;0.63;0.63;;;;;;;;;;5001036;28;20045;-84
2021/10/01 08:22:19;;;;;;;0.93;0.90;;;;;;;;;;5002555;28;20037;-84
2021/10/01 08:24:45;;;;;;;0.10;0.10;;;;;;;;;;4987293;28;20053;-85
2021/10/01 08:27:12;;;;;;;0.10;0.10;;;;;;;;;;5005285;28;20333;-85
2021/10/01 08:29:38;;;;;;;0.00;0.00;;;;;;;;;;5003847;28;20042;-84
2021/10/01 08:32:05;;;;;;;0.03;0.03;;;;;;;;;;5002498;28;20041;-84
2021/10/01 08:34:32;;;;;;;0.08;0.08;;;;;;;;;;5000679;28;20448;-84
2021/10/01 08:36:58;;;;;;;;;;;;;;;;;;5002580;28;20045;-84
2021/10/01 08:39:24;;;;;;;0.30;0.30;;;;;;;;;;5003874;28;19909;-85
2021/10/01 08:41:50;;;;;;;0.10;0.10;;;;;;;;;;5004306;28;20040;-84
2021/10/01 08:44:17;;;;;;;0.00;0.00;;;;;;;;;;5003983;28;20030;-84
2021/10/01 08:46:44;;;;;;;0.15;0.15;;;;;;;;;;5002041;28;20535;-85
2021/10/01 08:49:11;;;;;;;0.03;0.03;;;;;;;;;;5002894;28;20501;-85
2021/10/01 08:51:38;;;;;;;0.00;0.00;;;;;;;;;;5001730;28;20509;-84
2021/10/01 08:54:04;;;;;;;0.00;0.00;;;;;;;;;;4999899;28;20029;-85
2021/10/01 08:56:31;;;;;;;0.10;0.10;;;;;;;;;;5002730;28;20034;-84
2021/10/01 08:58:57;;;;;;;0.00;0.00;;;;;;;;;;5003758;28;20026;-84
2021/10/01 09:01:23;;;;;;;6.47;0.22;;;;;;;;;;5000282;28;20037;-85
2021/10/01 09:03:50;;;;;;;0.10;0.10;;;;;;;;;;5002241;28;20413;-85
2021/10/01 09:06:16;;;;;;;0.15;0.15;;;;;;;;;;5003411;28;20725;-84
2021/10/01 09:09:09;;;;;;;0.17;0.17;;;;;;;;;;5002395;28;20397;-84
2021/10/01 09:11:37;;;;;;;0.10;0.10;;;;;;;;;;5000016;28;20144;-84
2021/10/01 09:14:10;;;;;;;0.10;0.10;;;;;;;;;;5003557;28;20034;-84
2021/10/01 09:16:37;;;;;;;0.00;0.00;;;;;;;;;;4999528;28;20041;-84
2021/10/01 09:19:04;;;;;;;0.20;0.20;;;;;;;;;;5002719;28;20512;-84
2021/10/01 09:21:30;;;;;;;0.20;0.20;;;;;;;;;;5001108;28;20038;-84
2021/10/01 09:23:59;;;;;;;0.10;0.10;;;;;;;;;;5003039;28;20535;-84
2021/10/01 09:26:25;;;;;;;0.38;0.38;;;;;;;;;;5004367;28;20054;-84
2021/10/01 09:28:55;;;;;;;0.00;0.00;;;;;;;;;;5005811;28;20046;-84
2021/10/01 09:31:29;;;;;;;0.10;0.10;;;;;;;;;;5005478;28;20033;-85
2021/10/01 09:33:56;;;;;;;0.20;0.20;;;;;;;;;;5005900;28;20042;-84
2021/10/01 09:36:22;;;;;;;0.40;0.40;;;;;;;;;;5007006;28;20030;-84
2021/10/01 09:38:48;;;;;;;0.00;0.00;;;;;;;;;;5005695;28;20053;-84
2021/10/01 09:41:16;;;;;;;0.00;0.00;;;;;;;;;;5005511;28;20034;-84
2021/10/01 09:43:42;;;;;;;0.00;0.00;;;;;;;;;;5005130;28;20025;-84
2021/10/01 09:46:12;;;;;;;5.07;0.55;;;;;;;;;;5003492;28;20033;-85
2021/10/01 09:48:39;;;;;;;0.10;0.10;;;;;;;;;;5005664;28;20038;-84
2021/10/01 09:51:13;;;;;;;0.20;0.20;;;;;;;;;;5008006;28;20030;-84
2021/10/01 09:53:46;;;;;;;0.10;0.10;;;;;;;;;;5005924;28;20141;-85
2021/10/01 09:56:23;;;;;;;0.10;0.10;;;;;;;;;;5005299;28;20037;-85
2021/10/01 09:59:07;;;;;;;0.08;0.08;;;;;;;;;;5005573;28;20508;-84
2021/10/01 10:01:34;;;;;;;0.00;0.00;;;;;;;;;;5005834;28;20034;-84
2021/10/01 10:04:13;;;;;;;0.10;0.10;;;;;;;;;;5005277;28;20041;-84
2021/10/01 10:06:44;;;;;;;0.08;0.08;;;;;;;;;;5004294;28;20591;-85
2021/10/01 10:09:10;;;;;;;0.10;0.10;;;;;;;;;;5008128;28;20874;-84
2021/10/01 10:11:40;;;;;;;0.10;0.10;;;;;;;;;;5004917;28;20049;-84
2021/10/01 10:14:11;;;;;;;0.00;0.00;;;;;;;;;;5005518;28;20033;-85
2021/10/01 10:16:38;;;;;;;0.28;0.28;;;;;;;;;;5003724;28;20038;-84
2021/10/01 10:19:04;;;;;;;;;;;;;;;;;;5005268;28;20026;-84
2021/10/01 10:21:31;;;;;;;0.00;0.00;;;;;;;;;;5005390;28;19909;-84
2021/10/01 10:23:57;;;;;;;0.32;0.20;;;;;;;;;;5005267;28;20026;-84
2021/10/01 10:26:27;;;;;;;0.20;0.20;;;;;;;;;;5004548;28;20770;-83
2021/10/01 10:28:54;;;;;;;0.00;0.00;;;;;;;;;;5004470;28;20054;-83
2021/10/01 10:31:20;;;;;;;15.77;0.32;;;;;;;;;;5002686;28;20513;-82
2021/10/01 10:33:51;;;;;;;1.00;0.50;;;;;;;;;;4989379;28;20052;-83
2021/10/01 10:36:31;;;;;;;0.00;0.00;;;;;;;;;;5018158;28;20052;-83
2021/10/01 10:39:20;;;;;;;0.43;0.17;;;;;;;;;;5006318;28;20034;-83
2021/10/01 10:41:48;;;;;;;0.00;0.00;;;;;;;;;;5003731;28;20461;-83
2021/10/01 10:44:14;;;;;;;0.20;0.20;;;;;;;;;;5004794;28;20121;-83
2021/10/01 10:46:41;;;;;;;0.10;0.10;;;;;;;;;;5004902;28;20120;-83
2021/10/01 10:49:24;;;;;;;0.45;0.45;;;;;;;;;;5004803;28;20134;-82
2021/10/01 10:51:59;;;;;;;0.10;0.10;;;;;;;;;;4989891;28;20023;-83
2021/10/01 10:54:26;;;;;;;0.00;0.00;;;;;;;;;;5005644;28;20200;-83
2021/10/01 10:57:10;;;;;;;0.00;0.00;;;;;;;;;;5005919;28;20033;-83
2021/10/01 10:59:37;;;;;;;0.00;0.00;;;;;;;;;;5004284;28;20058;-83
2021/10/01 11:02:33;;;;;;;0.52;0.52;;;;;;;;;;5004672;28;20044;-83
2021/10/01 11:05:22;;;;;;;0.00;0.00;;;;;;;;;;5006441;28;20072;-83
2021/10/01 11:07:48;;;;;;;0.00;0.00;;;;;;;;;;5004020;28;20036;-83
2021/10/01 11:10:33;;;;;;;0.00;0.00;;;;;;;;;;5004026;28;20064;-83
2021/10/01 11:13:18;;;;;;;0.00;0.00;;;;;;;;;;4988000;28;20041;-83
2021/10/01 11:16:03;;;;;;;0.00;0.00;;;;;;;;;;5003703;28;20037;-83
2021/10/01 11:18:29;;;;;;;0.00;0.00;;;;;;;;;;5002595;28;20041;-82
2021/10/01 11:20:55;;;;;;;0.00;0.00;;;;;;;;;;5006022;28;20030;-82
2021/10/01 11:23:21;;;;;;;0.95;0.73;;;;;;;;;;5001327;28;20030;-83
2021/10/01 11:25:48;;;;;;;0.00;0.00;;;;;;;;;;5004137;28;20037;-83
2021/10/01 11:28:14;;;;;;;0.00;0.00;;;;;;;;;;5003303;28;20077;-83
2021/10/01 11:30:50;;;;;;;0.10;0.10;;;;;;;;;;5004205;28;20030;-83
2021/10/01 11:33:16;;;;;;;0.22;0.22;;;;;;;;;;5017165;28;20038;-83
2021/10/01 11:35:53;;;;;;;0.00;0.00;;;;;;;;;;5001396;28;20053;-83
2021/10/01 11:38:24;;;;;;;0.10;0.10;;;;;;;;;;5003302;28;20476;-85
2021/10/01 11:41:02;;;;;;;0.40;0.40;;;;;;;;;;5004709;28;20030;-85
2021/10/01 11:43:28;;;;;;;0.05;0.05;;;;;;;;;;5002987;28;20048;-84
2021/10/01 11:45:55;;;;;;;0.47;0.45;;;;;;;;;;5003427;28;20087;-84
2021/10/01 11:48:21;;;;;;;0.15;0.15;;;;;;;;;;5004424;28;20493;-85
2021/10/01 11:50:48;;;;;;;0.55;0.43;;;;;;;;;;5019275;28;21011;-84
2021/10/01 11:53:27;;;;;;;0.10;0.10;;;;;;;;;;5002988;28;20424;-85
2021/10/01 11:55:55;;;;;;;0.00;0.00;;;;;;;;;;5003041;28;20033;-83
2021/10/01 11:58:22;;;;;;;0.00;0.00;;;;;;;;;;5003362;28;20030;-83
2021/10/01 12:00:49;;;;;;;0.00;0.00;;;;;;;;;;5002960;28;20034;-83
2021/10/01 12:03:16;;;;;;;0.25;0.25;;;;;;;;;;5001643;28;20061;-82
2021/10/01 12:05:46;;;;;;;1.48;0.20;;;;;;;;;;5003011;28;20748;-83
2021/10/01 12:08:13;;;;;;;0.65;0.30;;;;;;;;;;5002705;28;20042;-82
2021/10/01 12:10:43;;;;;;;0.00;0.00;;;;;;;;;;5003025;28;20096;-82
2021/10/01 12:13:09;;;;;;;0.10;0.10;;;;;;;;;;5002664;28;20524;-83
2021/10/01 12:15:36;;;;;;;1.45;0.47;;;;;;;;;;5002581;28;20037;-82
2021/10/01 12:18:02;;;;;;;0.10;0.08;;;;;;;;;;5000240;28;20754;-81
2021/10/01 12:20:28;;;;;;;0.00;0.00;;;;;;;;;;4990272;28;20085;-81
2021/10/01 12:22:54;;;;;;;0.00;0.00;;;;;;;;;;4989155;28;20026;-84
2021/10/01 12:25:26;;;;;;;0.00;0.00;;;;;;;;;;4986663;28;20121;-82
2021/10/01 12:27:54;;;;;;;0.20;0.20;;;;;;;;;;5000469;28;20058;-83
2021/10/01 12:30:20;;;;;;;0.10;0.10;;;;;;;;;;5004568;28;20030;-83
2021/10/01 12:32:47;;;;;;;0.77;0.43;;;;;;;;;;5002029;28;20022;-82
2021/10/01 12:35:13;;;;;;;0.00;0.00;;;;;;;;;;5001685;28;20519;-83
2021/10/01 12:37:42;;;;;;;0.20;0.20;;;;;;;;;;5002476;28;20030;-82
2021/10/01 12:40:10;;;;;;;0.00;0.00;;;;;;;;;;5002813;28;20520;-83
2021/10/01 12:42:37;;;;;;;0.10;0.10;;;;;;;;;;5002661;28;20053;-83
2021/10/01 12:45:08;;;;;;;0.00;0.00;;;;;;;;;;5003608;28;20036;-82
2021/10/01 12:47:35;;;;;;;0.10;0.10;;;;;;;;;;5001740;28;20819;-83
2021/10/01 12:50:13;;;;;;;0.60;0.38;;;;;;;;;;5002768;28;20045;-83
2021/10/01 12:52:40;;;;;;;0.00;0.00;;;;;;;;;;5002516;28;20117;-82
2021/10/01 12:55:08;;;;;;;1.17;1.08;;;;;;;;;;5002638;28;20022;-82
2021/10/01 12:57:36;;;;;;;0.13;0.13;;;;;;;;;;5002342;28;20033;-83
2021/10/01 13:00:02;;;;;;;0.05;0.05;;;;;;;;;;5007261;28;20048;-83
2021/10/01 13:02:39;;;;;;;0.10;0.10;;;;;;;;;;5006570;28;20064;-82
2021/10/01 13:05:05;;;;;;;0.30;0.30;;;;;;;;;;5006070;28;20724;-85
2021/10/01 13:07:34;;;;;;;0.57;0.57;;;;;;;;;;5006929;28;20068;-83
2021/10/01 13:10:16;;;;;;;0.00;0.00;;;;;;;;;;5006653;28;20030;-83
2021/10/01 13:12:51;;;;;;;0.00;0.00;;;;;;;;;;5005769;28;20238;-83
2021/10/01 13:15:22;;;;;;;0.15;0.10;;;;;;;;;;5004776;28;20099;-83
2021/10/01 13:18:00;;;;;;;0.20;0.20;;;;;;;;;;5002806;28;20042;-83
2021/10/01 13:20:27;;;;;;;0.30;0.30;;;;;;;;;;5006329;28;20045;-82
2021/10/01 13:23:00;;;;;;;0.00;0.00;;;;;;;;;;5005856;28;20033;-83
2021/10/01 13:25:27;;;;;;;0.00;0.00;;;;;;;;;;5005981;28;20026;-82
2021/10/01 13:27:55;;;;;;;0.00;0.00;;;;;;;;;;5005478;28;20153;-83
2021/10/01 13:30:21;;;;;;;0.00;0.00;;;;;;;;;;4987093;28;20039;-83
2021/10/01 13:32:47;;;;;;;0.52;0.40;;;;;;;;;;5003805;28;20041;-83
2021/10/01 13:35:15;;;;;;;0.00;0.00;;;;;;;;;;5006214;28;20040;-83
2021/10/01 13:37:42;;;;;;;0.03;0.03;;;;;;;;;;5005946;28;20124;-83
2021/10/01 13:40:09;;;;;;;0.38;0.38;;;;;;;;;;5006115;28;20153;-83
2021/10/01 13:42:35;;;;;;;0.17;0.17;;;;;;;;;;5005967;28;20025;-83
2021/10/01 13:45:01;;;;;;;0.28;0.20;;;;;;;;;;5008312;28;20041;-83
2021/10/01 13:47:27;;;;;;;0.00;0.00;;;;;;;;;;5005560;28;20048;-83
2021/10/01 13:49:53;;;;;;;0.10;0.10;;;;;;;;;;5005702;28;20030;-83
2021/10/01 13:52:19;;;;;;;0.00;0.00;;;;;;;;;;5005110;28;20056;-83
2021/10/01 13:54:45;;;;;;;0.10;0.10;;;;;;;;;;5005920;28;20771;-83
2021/10/01 13:57:11;;;;;;;0.30;0.20;;;;;;;;;;5007720;28;20651;-83
2021/10/01 13:59:38;;;;;;;0.00;0.00;;;;;;;;;;5005359;28;20057;-83
2021/10/01 14:02:04;;;;;;;0.08;0.08;;;;;;;;;;5005124;28;20032;-83
2021/10/01 14:04:30;;;;;;;0.00;0.00;;;;;;;;;;5005478;28;20038;-83
2021/10/01 14:06:56;;;;;;;0.10;0.10;;;;;;;;;;5005252;28;20120;-83
2021/10/01 14:09:22;;;;;;;0.00;0.00;;;;;;;;;;5006766;28;20508;-83
2021/10/01 14:11:48;;;;;;;0.00;0.00;;;;;;;;;;5005253;28;20110;-83
2021/10/01 14:14:14;;;;;;;0.65;0.38;;;;;;;;;;5005384;28;20046;-83
2021/10/01 14:16:40;;;;;;;4.70;0.68;;;;;;;;;;5002712;28;20026;-84
2021/10/01 14:19:06;;;;;;;0.03;0.03;;;;;;;;;;5005660;28;20133;-84
2021/10/01 14:21:32;;;;;;;0.08;0.08;;;;;;;;;;5005468;28;20143;-84
2021/10/01 14:23:58;;;;;;;0.25;0.25;;;;;;;;;;5007594;28;20071;-84
2021/10/01 14:26:26;;;;;;;0.10;0.10;;;;;;;;;;5006044;28;20042;-84
2021/10/01 14:28:53;;;;;;;0.30;0.30;;;;;;;;;;5005039;28;20509;-84
2021/10/01 14:31:19;;;;;;;0.00;0.00;;;;;;;;;;5004784;28;20037;-85
2021/10/01 14:33:46;;;;;;;0.00;0.00;;;;;;;;;;5005461;28;20555;-85
2021/10/01 14:36:12;;;;;;;1.67;0.40;;;;;;;;;;5007309;28;20648;-85
2021/10/01 14:38:38;;;;;;;0.00;0.00;;;;;;;;;;5005416;28;20092;-85
2021/10/01 14:41:05;;;;;;;0.08;0.08;;;;;;;;;;5005148;28;20874;-84
2021/10/01 14:43:32;;;;;;;0.03;0.03;;;;;;;;;;5004660;28;20022;-84
2021/10/01 14:45:58;;;;;;;0.10;0.10;;;;;;;;;;5005514;28;20035;-85
2021/10/01 14:48:24;;;;;;;0.10;0.10;;;;;;;;;;5006172;28;20037;-84
2021/10/01 14:50:51;;;;;;;0.10;0.10;;;;;;;;;;5005894;28;20034;-85
2021/10/01 14:53:17;;;;;;;1.25;0.28;;;;;;;;;;5001246;28;20038;-84
2021/10/01 14:55:43;;;;;;;0.00;0.00;;;;;;;;;;5004945;28;20476;-84
2021/10/01 14:58:09;;;;;;;0.00;0.00;;;;;;;;;;5004241;28;20503;-84
2021/10/01 15:00:35;;;;;;;0.00;0.00;;;;;;;;;;5004895;28;20033;-84
2021/10/01 15:03:03;;;;;;;0.35;0.20;;;;;;;;;;5006902;28;20037;-84
2021/10/01 15:05:30;;;;;;;0.40;0.40;;;;;;;;;;5002510;28;20100;-85
2021/10/01 15:07:57;;;;;;;;;;;;;;;;;;5005757;28;20044;-84
2021/10/01 15:10:23;;;;;;;0.00;0.00;;;;;;;;;;5004060;28;19913;-84
2021/10/01 15:12:49;;;;;;;0.50;0.25;;;;;;;;;;5004608;28;20034;-85
2021/10/01 15:15:15;;;;;;;;;;;;;;;;;;5002997;28;20045;-85
2021/10/01 15:17:41;;;;;;;0.00;0.00;;;;;;;;;;4996032;28;19914;-84
2021/10/01 15:20:08;;;;;;;0.95;0.70;;;;;;;;;;4999474;28;20049;-84
2021/10/01 15:22:34;;;;;;;0.20;0.17;;;;;;;;;;5004228;28;20153;-85
2021/10/01 15:25:00;;;;;;;0.00;0.00;;;;;;;;;;5000998;28;20109;-82
2021/10/01 15:27:27;;;;;;;0.52;0.17;;;;;;;;;;4988220;28;20555;-82
2021/10/01 15:30:06;;;;;;;0.00;0.00;;;;;;;;;;4990275;28;20022;-82
2021/10/01 15:32:33;;;;;;;0.00;0.00;;;;;;;;;;4991842;28;20780;-83
2021/10/01 15:34:59;;;;;;;;;;;;;;;;;;4990917;28;20041;-83
2021/10/01 15:37:26;;;;;;;0.10;0.10;;;;;;;;;;4987655;28;19972;-83
2021/10/01 15:39:53;;;;;;;0.00;0.00;;;;;;;;;;4988198;28;20026;-84
2021/10/01 15:42:19;;;;;;;0.13;0.13;;;;;;;;;;5003502;28;20465;-84
2021/10/01 15:44:45;;;;;;;0.00;0.00;;;;;;;;;;5001950;28;20026;-83
2021/10/01 15:47:11;;;;;;;0.08;0.03;;;;;;;;;;4992859;28;20084;-84
2021/10/01 15:49:37;;;;;;;0.10;0.10;;;;;;;;;;4987726;28;20616;-83
2021/10/01 15:52:03;;;;;;;0.20;0.20;;;;;;;;;;5003933;28;20093;-84
2021/10/01 15:54:30;;;;;;;0.00;0.00;;;;;;;;;;5002393;28;20034;-82
2021/10/01 15:56:56;;;;;;;0.00;0.00;;;;;;;;;;5002922;28;20041;-84
2021/10/01 15:59:22;;;;;;;0.20;0.20;;;;;;;;;;5003331;28;20856;-83
2021/10/01 16:01:48;;;;;;;0.30;0.30;;;;;;;;;;5003336;28;20052;-84
2021/10/01 16:04:14;;;;;;;0.10;0.10;;;;;;;;;;5002893;28;20082;-83
2021/10/01 16:06:40;;;;;;;3.78;1.50;;;;;;;;;;5003332;28;20050;-83
2021/10/01 16:09:07;;;;;;;0.05;0.05;;;;;;;;;;5005702;28;20034;-83
2021/10/01 16:11:33;;;;;;;;;;;;;;;;;;5003316;28;20175;-83
2021/10/01 16:13:59;;;;;;;0.13;0.13;;;;;;;;;;5002165;28;20355;-84
2021/10/01 16:16:26;;;;;;;0.00;0.00;;;;;;;;;;5000375;28;20034;-83
2021/10/01 16:18:52;;;;;;;0.03;0.03;;;;;;;;;;5001092;28;20091;-83
2021/10/01 16:21:18;;;;;;;0.22;0.22;;;;;;;;;;5005993;28;20030;-83
2021/10/01 16:23:44;;;;;;;0.30;0.28;;;;;;;;;;5002966;28;20080;-83
2021/10/01 16:26:10;;;;;;;0.00;0.00;;;;;;;;;;5002080;28;20081;-83